sensor_id;sensor_type;location;lat;lon;timestamp;P1;durP1;ratioP1;P2;durP2;ratioP2
2624;SDS011;1322;53.256;10.386;2022-09-09T00:03:57;19.80;;;14.57;;
2624;SDS011;1322;53.256;10.386;2022-09-09T00:06:31;15.97;;;13.27;;
2624;SDS011;1322;53.256;10.386;2022-09-09T00:09:02;14.90;;;12.83;;
2624;SDS011;1322;53.256;10.386;2022-09-09T00:14:37;16.20;;;12.57;;
2624;SDS011;1322;53.256;10.386;2022-09-09T00:17:09;15.97;;;11.97;;
2624;SDS011;1322;53.256;10.386;2022-09-09T00:19:53;14.10;;;12.50;;
2624;SDS011;1322;53.256;10.386;2022-09-09T00:22:28;17.03;;;13.20;;
2624;SDS011;1322;53.256;10.386;2022-09-09T00:25:11;12.47;;;11.00;;
2624;SDS011;1322;53.256;10.386;2022-09-09T00:27:46;14.53;;;12.03;;
2624;SDS011;1322;53.256;10.386;2022-09-09T00:30:15;14.90;;;11.93;;
2624;SDS011;1322;53.256;10.386;2022-09-09T00:32:44;16.07;;;10.23;;
2624;SDS011;1322;53.256;10.386;2022-09-09T00:35:21;12.50;;;10.20;;
2624;SDS011;1322;53.256;10.386;2022-09-09T00:37:56;14.37;;;11.97;;
2624;SDS011;1322;53.256;10.386;2022-09-09T00:40:28;12.80;;;11.23;;
2624;SDS011;1322;53.256;10.386;2022-09-09T00:51:23;17.50;;;11.80;;
2624;SDS011;1322;53.256;10.386;2022-09-09T00:56:35;14.60;;;11.33;;
2624;SDS011;1322;53.256;10.386;2022-09-09T01:01:35;15.13;;;12.43;;
2624;SDS011;1322;53.256;10.386;2022-09-09T01:04:01;13.77;;;10.93;;
2624;SDS011;1322;53.256;10.386;2022-09-09T01:06:35;12.20;;;10.57;;
2624;SDS011;1322;53.256;10.386;2022-09-09T01:14:30;14.10;;;11.03;;
2624;SDS011;1322;53.256;10.386;2022-09-09T01:17:00;21.53;;;13.53;;
2624;SDS011;1322;53.256;10.386;2022-09-09T01:19:39;19.50;;;12.67;;
2624;SDS011;1322;53.256;10.386;2022-09-09T01:24:42;18.10;;;13.00;;
2624;SDS011;1322;53.256;10.386;2022-09-09T01:27:32;25.03;;;12.17;;
2624;SDS011;1322;53.256;10.386;2022-09-09T01:29:59;17.70;;;13.27;;
2624;SDS011;1322;53.256;10.386;2022-09-09T01:35:08;17.23;;;12.17;;
2624;SDS011;1322;53.256;10.386;2022-09-09T01:37:38;19.10;;;11.90;;
2624;SDS011;1322;53.256;10.386;2022-09-09T01:40:03;17.17;;;11.60;;
2624;SDS011;1322;53.256;10.386;2022-09-09T01:42:29;13.70;;;10.97;;
2624;SDS011;1322;53.256;10.386;2022-09-09T01:44:55;16.70;;;12.30;;
2624;SDS011;1322;53.256;10.386;2022-09-09T01:47:21;13.00;;;10.73;;
2624;SDS011;1322;53.256;10.386;2022-09-09T01:49:46;13.27;;;10.90;;
2624;SDS011;1322;53.256;10.386;2022-09-09T01:52:12;17.17;;;10.97;;
2624;SDS011;1322;53.256;10.386;2022-09-09T01:54:38;18.20;;;11.37;;
2624;SDS011;1322;53.256;10.386;2022-09-09T02:05:40;14.60;;;10.80;;
2624;SDS011;1322;53.256;10.386;2022-09-09T02:08:11;15.00;;;10.83;;
2624;SDS011;1322;53.256;10.386;2022-09-09T02:10:58;16.10;;;11.27;;
2624;SDS011;1322;53.256;10.386;2022-09-09T02:13:27;13.87;;;11.47;;
2624;SDS011;1322;53.256;10.386;2022-09-09T02:16:14;15.97;;;12.23;;
2624;SDS011;1322;53.256;10.386;2022-09-09T02:21:35;15.00;;;11.90;;
2624;SDS011;1322;53.256;10.386;2022-09-09T02:24:02;12.80;;;10.43;;
2624;SDS011;1322;53.256;10.386;2022-09-09T02:26:31;14.30;;;11.60;;
2624;SDS011;1322;53.256;10.386;2022-09-09T02:28:59;12.17;;;9.90;;
2624;SDS011;1322;53.256;10.386;2022-09-09T02:31:28;14.73;;;10.93;;
2624;SDS011;1322;53.256;10.386;2022-09-09T02:33:57;13.07;;;10.50;;
2624;SDS011;1322;53.256;10.386;2022-09-09T02:36:27;11.77;;;9.63;;
2624;SDS011;1322;53.256;10.386;2022-09-09T02:38:58;13.27;;;10.83;;
2624;SDS011;1322;53.256;10.386;2022-09-09T02:41:35;12.47;;;11.17;;
2624;SDS011;1322;53.256;10.386;2022-09-09T02:44:05;12.93;;;10.60;;
2624;SDS011;1322;53.256;10.386;2022-09-09T02:49:21;14.17;;;10.80;;
2624;SDS011;1322;53.256;10.386;2022-09-09T02:54:27;13.10;;;10.70;;
2624;SDS011;1322;53.256;10.386;2022-09-09T02:57:05;13.10;;;10.50;;
2624;SDS011;1322;53.256;10.386;2022-09-09T02:59:38;20.50;;;11.00;;
2624;SDS011;1322;53.256;10.386;2022-09-09T03:02:04;17.13;;;11.93;;
2624;SDS011;1322;53.256;10.386;2022-09-09T03:04:30;14.63;;;10.90;;
2624;SDS011;1322;53.256;10.386;2022-09-09T03:06:56;16.30;;;10.50;;
2624;SDS011;1322;53.256;10.386;2022-09-09T03:09:25;12.93;;;11.13;;
2624;SDS011;1322;53.256;10.386;2022-09-09T03:11:53;13.73;;;11.00;;
2624;SDS011;1322;53.256;10.386;2022-09-09T03:14:19;13.27;;;10.10;;
2624;SDS011;1322;53.256;10.386;2022-09-09T03:16:46;13.27;;;10.20;;
2624;SDS011;1322;53.256;10.386;2022-09-09T03:19:13;14.70;;;9.50;;
2624;SDS011;1322;53.256;10.386;2022-09-09T03:21:38;12.73;;;10.47;;
2624;SDS011;1322;53.256;10.386;2022-09-09T03:24:04;13.97;;;10.17;;
2624;SDS011;1322;53.256;10.386;2022-09-09T03:26:30;10.70;;;8.50;;
2624;SDS011;1322;53.256;10.386;2022-09-09T03:28:55;13.07;;;10.00;;
2624;SDS011;1322;53.256;10.386;2022-09-09T03:31:21;13.47;;;9.80;;
2624;SDS011;1322;53.256;10.386;2022-09-09T03:33:47;13.43;;;10.53;;
2624;SDS011;1322;53.256;10.386;2022-09-09T03:36:13;10.07;;;9.03;;
2624;SDS011;1322;53.256;10.386;2022-09-09T03:38:39;11.00;;;9.63;;
2624;SDS011;1322;53.256;10.386;2022-09-09T03:41:06;14.57;;;10.63;;
2624;SDS011;1322;53.256;10.386;2022-09-09T03:43:32;14.37;;;10.73;;
2624;SDS011;1322;53.256;10.386;2022-09-09T03:45:58;12.80;;;10.40;;
2624;SDS011;1322;53.256;10.386;2022-09-09T03:48:25;16.80;;;9.70;;
2624;SDS011;1322;53.256;10.386;2022-09-09T03:50:53;11.33;;;9.50;;
2624;SDS011;1322;53.256;10.386;2022-09-09T03:53:22;12.10;;;9.13;;
2624;SDS011;1322;53.256;10.386;2022-09-09T03:55:50;13.33;;;9.40;;
2624;SDS011;1322;53.256;10.386;2022-09-09T03:58:19;11.13;;;7.97;;
2624;SDS011;1322;53.256;10.386;2022-09-09T04:00:55;11.57;;;8.83;;
2624;SDS011;1322;53.256;10.386;2022-09-09T04:03:23;12.10;;;10.30;;
2624;SDS011;1322;53.256;10.386;2022-09-09T04:05:50;12.40;;;10.30;;
2624;SDS011;1322;53.256;10.386;2022-09-09T04:08:20;12.20;;;9.93;;
2624;SDS011;1322;53.256;10.386;2022-09-09T04:10:46;12.63;;;9.20;;
2624;SDS011;1322;53.256;10.386;2022-09-09T04:13:14;11.40;;;8.73;;
2624;SDS011;1322;53.256;10.386;2022-09-09T04:15:42;12.63;;;8.20;;
2624;SDS011;1322;53.256;10.386;2022-09-09T04:18:10;9.43;;;8.43;;
2624;SDS011;1322;53.256;10.386;2022-09-09T04:20:36;9.77;;;7.97;;
2624;SDS011;1322;53.256;10.386;2022-09-09T04:23:02;10.23;;;9.20;;
2624;SDS011;1322;53.256;10.386;2022-09-09T04:25:29;10.33;;;8.70;;
2624;SDS011;1322;53.256;10.386;2022-09-09T04:27:55;10.10;;;8.17;;
2624;SDS011;1322;53.256;10.386;2022-09-09T04:30:21;10.50;;;8.50;;
2624;SDS011;1322;53.256;10.386;2022-09-09T04:32:47;8.97;;;8.07;;
2624;SDS011;1322;53.256;10.386;2022-09-09T04:35:13;10.73;;;8.20;;
2624;SDS011;1322;53.256;10.386;2022-09-09T04:37:39;12.17;;;7.93;;
2624;SDS011;1322;53.256;10.386;2022-09-09T04:40:05;9.60;;;8.60;;
2624;SDS011;1322;53.256;10.386;2022-09-09T04:42:34;9.43;;;8.13;;
2624;SDS011;1322;53.256;10.386;2022-09-09T04:45:01;9.27;;;7.83;;
2624;SDS011;1322;53.256;10.386;2022-09-09T04:47:26;10.00;;;7.63;;
2624;SDS011;1322;53.256;10.386;2022-09-09T04:49:52;8.57;;;7.30;;
2624;SDS011;1322;53.256;10.386;2022-09-09T04:52:19;8.07;;;7.30;;
2624;SDS011;1322;53.256;10.386;2022-09-09T04:54:45;11.73;;;8.43;;
2624;SDS011;1322;53.256;10.386;2022-09-09T04:57:10;11.33;;;9.03;;
2624;SDS011;1322;53.256;10.386;2022-09-09T04:59:37;9.00;;;7.43;;
2624;SDS011;1322;53.256;10.386;2022-09-09T05:02:04;9.40;;;7.33;;
2624;SDS011;1322;53.256;10.386;2022-09-09T05:04:30;8.60;;;7.40;;
2624;SDS011;1322;53.256;10.386;2022-09-09T05:06:56;9.70;;;7.20;;
2624;SDS011;1322;53.256;10.386;2022-09-09T05:09:22;7.90;;;7.20;;
2624;SDS011;1322;53.256;10.386;2022-09-09T05:11:48;10.77;;;7.47;;
2624;SDS011;1322;53.256;10.386;2022-09-09T05:14:13;9.13;;;7.13;;
2624;SDS011;1322;53.256;10.386;2022-09-09T05:16:40;9.77;;;6.43;;
2624;SDS011;1322;53.256;10.386;2022-09-09T05:19:05;9.30;;;8.03;;
2624;SDS011;1322;53.256;10.386;2022-09-09T05:21:33;8.93;;;6.80;;
2624;SDS011;1322;53.256;10.386;2022-09-09T05:23:59;6.77;;;6.17;;
2624;SDS011;1322;53.256;10.386;2022-09-09T05:26:27;7.90;;;6.20;;
2624;SDS011;1322;53.256;10.386;2022-09-09T05:28:54;13.53;;;6.70;;
2624;SDS011;1322;53.256;10.386;2022-09-09T05:31:20;8.90;;;6.30;;
2624;SDS011;1322;53.256;10.386;2022-09-09T05:33:46;11.33;;;7.10;;
2624;SDS011;1322;53.256;10.386;2022-09-09T05:36:15;7.50;;;6.03;;
2624;SDS011;1322;53.256;10.386;2022-09-09T05:38:43;7.87;;;6.30;;
2624;SDS011;1322;53.256;10.386;2022-09-09T05:41:10;6.40;;;5.23;;
2624;SDS011;1322;53.256;10.386;2022-09-09T05:43:37;8.43;;;5.00;;
2624;SDS011;1322;53.256;10.386;2022-09-09T05:46:07;6.13;;;5.53;;
2624;SDS011;1322;53.256;10.386;2022-09-09T05:48:36;6.90;;;4.17;;
2624;SDS011;1322;53.256;10.386;2022-09-09T05:51:03;8.93;;;4.50;;
2624;SDS011;1322;53.256;10.386;2022-09-09T05:53:31;5.27;;;4.37;;
2624;SDS011;1322;53.256;10.386;2022-09-09T05:56:18;5.93;;;4.30;;
2624;SDS011;1322;53.256;10.386;2022-09-09T05:58:46;10.10;;;3.73;;
2624;SDS011;1322;53.256;10.386;2022-09-09T06:01:13;4.90;;;4.40;;
2624;SDS011;1322;53.256;10.386;2022-09-09T06:03:41;4.57;;;4.10;;
2624;SDS011;1322;53.256;10.386;2022-09-09T06:06:08;6.97;;;4.20;;
2624;SDS011;1322;53.256;10.386;2022-09-09T06:08:36;7.23;;;3.90;;
2624;SDS011;1322;53.256;10.386;2022-09-09T06:11:04;8.10;;;4.10;;
2624;SDS011;1322;53.256;10.386;2022-09-09T06:13:31;4.30;;;3.07;;
2624;SDS011;1322;53.256;10.386;2022-09-09T06:15:57;4.73;;;3.63;;
2624;SDS011;1322;53.256;10.386;2022-09-09T06:18:23;10.47;;;3.90;;
2624;SDS011;1322;53.256;10.386;2022-09-09T06:20:54;7.57;;;3.90;;
2624;SDS011;1322;53.256;10.386;2022-09-09T06:23:21;4.17;;;3.77;;
2624;SDS011;1322;53.256;10.386;2022-09-09T06:25:46;3.90;;;3.40;;
2624;SDS011;1322;53.256;10.386;2022-09-09T06:28:12;7.13;;;3.60;;
2624;SDS011;1322;53.256;10.386;2022-09-09T06:30:38;5.03;;;3.10;;
2624;SDS011;1322;53.256;10.386;2022-09-09T06:33:04;4.93;;;3.17;;
2624;SDS011;1322;53.256;10.386;2022-09-09T06:35:30;6.03;;;3.67;;
2624;SDS011;1322;53.256;10.386;2022-09-09T06:37:56;4.30;;;3.30;;
2624;SDS011;1322;53.256;10.386;2022-09-09T06:40:23;6.27;;;3.57;;
2624;SDS011;1322;53.256;10.386;2022-09-09T06:42:49;7.10;;;6.37;;
2624;SDS011;1322;53.256;10.386;2022-09-09T06:45:15;20.47;;;14.40;;
2624;SDS011;1322;53.256;10.386;2022-09-09T06:47:41;7.17;;;5.70;;
2624;SDS011;1322;53.256;10.386;2022-09-09T06:50:07;4.20;;;3.80;;
2624;SDS011;1322;53.256;10.386;2022-09-09T06:52:35;5.70;;;3.60;;
2624;SDS011;1322;53.256;10.386;2022-09-09T06:55:01;6.27;;;3.80;;
2624;SDS011;1322;53.256;10.386;2022-09-09T06:57:28;7.17;;;4.37;;
2624;SDS011;1322;53.256;10.386;2022-09-09T06:59:53;5.63;;;3.90;;
2624;SDS011;1322;53.256;10.386;2022-09-09T07:02:19;5.83;;;3.00;;
2624;SDS011;1322;53.256;10.386;2022-09-09T07:04:45;5.20;;;3.90;;
2624;SDS011;1322;53.256;10.386;2022-09-09T07:07:10;7.27;;;3.73;;
2624;SDS011;1322;53.256;10.386;2022-09-09T07:09:38;7.20;;;3.37;;
2624;SDS011;1322;53.256;10.386;2022-09-09T07:12:05;4.07;;;3.37;;
2624;SDS011;1322;53.256;10.386;2022-09-09T07:14:31;4.93;;;2.97;;
2624;SDS011;1322;53.256;10.386;2022-09-09T07:16:58;7.23;;;3.20;;
2624;SDS011;1322;53.256;10.386;2022-09-09T07:19:25;3.53;;;2.90;;
2624;SDS011;1322;53.256;10.386;2022-09-09T07:21:51;3.63;;;2.97;;
2624;SDS011;1322;53.256;10.386;2022-09-09T07:24:16;3.73;;;3.30;;
2624;SDS011;1322;53.256;10.386;2022-09-09T07:26:42;5.10;;;3.23;;
2624;SDS011;1322;53.256;10.386;2022-09-09T07:29:09;8.00;;;3.40;;
2624;SDS011;1322;53.256;10.386;2022-09-09T07:31:36;6.97;;;2.70;;
2624;SDS011;1322;53.256;10.386;2022-09-09T07:34:03;4.50;;;2.30;;
2624;SDS011;1322;53.256;10.386;2022-09-09T07:36:32;3.10;;;2.77;;
2624;SDS011;1322;53.256;10.386;2022-09-09T07:39:00;6.17;;;2.57;;
2624;SDS011;1322;53.256;10.386;2022-09-09T07:41:44;4.73;;;2.90;;
2624;SDS011;1322;53.256;10.386;2022-09-09T07:44:12;5.03;;;3.40;;
2624;SDS011;1322;53.256;10.386;2022-09-09T07:46:42;23.63;;;15.77;;
2624;SDS011;1322;53.256;10.386;2022-09-09T07:49:10;7.37;;;4.43;;
2624;SDS011;1322;53.256;10.386;2022-09-09T07:51:40;7.47;;;5.40;;
2624;SDS011;1322;53.256;10.386;2022-09-09T07:54:08;3.37;;;3.00;;
2624;SDS011;1322;53.256;10.386;2022-09-09T07:56:36;3.63;;;2.50;;
2624;SDS011;1322;53.256;10.386;2022-09-09T07:59:04;4.20;;;2.63;;
2624;SDS011;1322;53.256;10.386;2022-09-09T08:01:35;4.33;;;2.40;;
2624;SDS011;1322;53.256;10.386;2022-09-09T08:04:05;4.53;;;2.57;;
2624;SDS011;1322;53.256;10.386;2022-09-09T08:06:41;5.30;;;2.73;;
2624;SDS011;1322;53.256;10.386;2022-09-09T08:09:14;3.03;;;2.40;;
2624;SDS011;1322;53.256;10.386;2022-09-09T08:11:41;2.70;;;2.30;;
2624;SDS011;1322;53.256;10.386;2022-09-09T08:14:07;7.33;;;3.27;;
2624;SDS011;1322;53.256;10.386;2022-09-09T08:16:35;3.30;;;2.77;;
2624;SDS011;1322;53.256;10.386;2022-09-09T08:19:03;3.30;;;2.80;;
2624;SDS011;1322;53.256;10.386;2022-09-09T08:21:30;3.50;;;2.63;;
2624;SDS011;1322;53.256;10.386;2022-09-09T08:23:58;36.10;;;28.50;;
2624;SDS011;1322;53.256;10.386;2022-09-09T08:26:26;4.77;;;4.20;;
2624;SDS011;1322;53.256;10.386;2022-09-09T08:28:54;5.13;;;2.93;;
2624;SDS011;1322;53.256;10.386;2022-09-09T08:31:23;3.77;;;2.60;;
2624;SDS011;1322;53.256;10.386;2022-09-09T08:33:50;4.20;;;2.80;;
2624;SDS011;1322;53.256;10.386;2022-09-09T08:36:20;9.50;;;2.90;;
2624;SDS011;1322;53.256;10.386;2022-09-09T08:38:58;4.20;;;2.47;;
2624;SDS011;1322;53.256;10.386;2022-09-09T08:41:43;6.17;;;3.20;;
2624;SDS011;1322;53.256;10.386;2022-09-09T08:44:45;7.07;;;4.73;;
2624;SDS011;1322;53.256;10.386;2022-09-09T08:55:40;5.90;;;2.73;;
2624;SDS011;1322;53.256;10.386;2022-09-09T08:58:19;8.03;;;2.60;;
2624;SDS011;1322;53.256;10.386;2022-09-09T09:07:00;3.83;;;2.30;;
2624;SDS011;1322;53.256;10.386;2022-09-09T09:12:06;7.47;;;3.40;;
2624;SDS011;1322;53.256;10.386;2022-09-09T09:14:41;5.67;;;2.90;;
2624;SDS011;1322;53.256;10.386;2022-09-09T09:17:15;6.23;;;2.97;;
2624;SDS011;1322;53.256;10.386;2022-09-09T09:19:47;8.27;;;3.20;;
2624;SDS011;1322;53.256;10.386;2022-09-09T09:22:16;3.60;;;2.87;;
2624;SDS011;1322;53.256;10.386;2022-09-09T09:29:59;3.87;;;2.60;;
2624;SDS011;1322;53.256;10.386;2022-09-09T09:32:28;3.60;;;2.10;;
2624;SDS011;1322;53.256;10.386;2022-09-09T09:34:58;5.50;;;2.83;;
2624;SDS011;1322;53.256;10.386;2022-09-09T09:37:27;3.53;;;2.57;;
2624;SDS011;1322;53.256;10.386;2022-09-09T09:39:55;5.13;;;2.53;;
2624;SDS011;1322;53.256;10.386;2022-09-09T09:42:20;4.90;;;2.70;;
2624;SDS011;1322;53.256;10.386;2022-09-09T09:44:47;7.80;;;2.37;;
2624;SDS011;1322;53.256;10.386;2022-09-09T09:49:50;2.60;;;2.07;;
2624;SDS011;1322;53.256;10.386;2022-09-09T09:52:27;2.73;;;1.80;;
2624;SDS011;1322;53.256;10.386;2022-09-09T09:54:55;25.80;;;21.00;;
2624;SDS011;1322;53.256;10.386;2022-09-09T09:57:25;5.67;;;4.77;;
2624;SDS011;1322;53.256;10.386;2022-09-09T10:00:12;3.57;;;2.70;;
2624;SDS011;1322;53.256;10.386;2022-09-09T10:02:43;4.83;;;2.53;;
2624;SDS011;1322;53.256;10.386;2022-09-09T10:05:17;6.77;;;2.77;;
2624;SDS011;1322;53.256;10.386;2022-09-09T10:11:02;3.63;;;2.67;;
2624;SDS011;1322;53.256;10.386;2022-09-09T10:19:04;3.10;;;2.10;;
2624;SDS011;1322;53.256;10.386;2022-09-09T10:21:46;4.17;;;2.60;;
2624;SDS011;1322;53.256;10.386;2022-09-09T10:30:16;4.43;;;2.03;;
2624;SDS011;1322;53.256;10.386;2022-09-09T10:33:04;3.83;;;2.13;;
2624;SDS011;1322;53.256;10.386;2022-09-09T10:38:22;4.37;;;2.40;;
2624;SDS011;1322;53.256;10.386;2022-09-09T10:49:13;2.67;;;1.77;;
2624;SDS011;1322;53.256;10.386;2022-09-09T10:54:53;4.03;;;2.50;;
2624;SDS011;1322;53.256;10.386;2022-09-09T10:57:37;5.50;;;2.40;;
2624;SDS011;1322;53.256;10.386;2022-09-09T11:00:13;2.97;;;1.67;;
2624;SDS011;1322;53.256;10.386;2022-09-09T11:02:44;1.90;;;1.60;;
2624;SDS011;1322;53.256;10.386;2022-09-09T11:05:38;2.90;;;1.60;;
2624;SDS011;1322;53.256;10.386;2022-09-09T11:08:12;3.40;;;1.40;;
2624;SDS011;1322;53.256;10.386;2022-09-09T11:16:27;4.90;;;1.93;;
2624;SDS011;1322;53.256;10.386;2022-09-09T11:21:47;2.60;;;1.60;;
2624;SDS011;1322;53.256;10.386;2022-09-09T11:26:47;2.77;;;1.60;;
2624;SDS011;1322;53.256;10.386;2022-09-09T11:42:38;5.83;;;2.67;;
2624;SDS011;1322;53.256;10.386;2022-09-09T11:45:23;6.17;;;2.90;;
2624;SDS011;1322;53.256;10.386;2022-09-09T11:47:54;12.73;;;3.20;;
2624;SDS011;1322;53.256;10.386;2022-09-09T11:52:49;7.93;;;3.00;;
2624;SDS011;1322;53.256;10.386;2022-09-09T11:55:29;7.93;;;3.57;;
2624;SDS011;1322;53.256;10.386;2022-09-09T11:57:58;31.20;;;26.03;;
2624;SDS011;1322;53.256;10.386;2022-09-09T12:00:36;7.87;;;5.60;;
2624;SDS011;1322;53.256;10.386;2022-09-09T12:03:50;7.37;;;3.63;;
2624;SDS011;1322;53.256;10.386;2022-09-09T12:08:41;5.70;;;3.17;;
2624;SDS011;1322;53.256;10.386;2022-09-09T12:11:10;6.17;;;3.40;;
2624;SDS011;1322;53.256;10.386;2022-09-09T12:13:36;8.40;;;3.50;;
2624;SDS011;1322;53.256;10.386;2022-09-09T12:16:02;5.90;;;3.23;;
2624;SDS011;1322;53.256;10.386;2022-09-09T12:23:53;6.00;;;3.93;;
2624;SDS011;1322;53.256;10.386;2022-09-09T12:29:02;4.07;;;3.27;;
2624;SDS011;1322;53.256;10.386;2022-09-09T12:31:56;4.60;;;2.83;;
2624;SDS011;1322;53.256;10.386;2022-09-09T12:34:43;4.00;;;2.60;;
2624;SDS011;1322;53.256;10.386;2022-09-09T12:40:25;4.00;;;2.63;;
2624;SDS011;1322;53.256;10.386;2022-09-09T12:42:53;6.53;;;3.20;;
2624;SDS011;1322;53.256;10.386;2022-09-09T12:45:21;4.97;;;3.27;;
2624;SDS011;1322;53.256;10.386;2022-09-09T12:48:05;5.70;;;3.00;;
2624;SDS011;1322;53.256;10.386;2022-09-09T12:50:36;3.07;;;2.63;;
2624;SDS011;1322;53.256;10.386;2022-09-09T12:53:09;3.50;;;2.63;;
2624;SDS011;1322;53.256;10.386;2022-09-09T12:55:48;5.50;;;3.27;;
2624;SDS011;1322;53.256;10.386;2022-09-09T12:58:16;3.73;;;3.00;;
2624;SDS011;1322;53.256;10.386;2022-09-09T13:00:48;4.03;;;2.80;;
2624;SDS011;1322;53.256;10.386;2022-09-09T13:03:17;4.53;;;2.40;;
2624;SDS011;1322;53.256;10.386;2022-09-09T13:05:45;5.33;;;3.50;;
2624;SDS011;1322;53.256;10.386;2022-09-09T13:08:12;4.47;;;2.60;;
2624;SDS011;1322;53.256;10.386;2022-09-09T13:13:15;4.00;;;2.70;;
2624;SDS011;1322;53.256;10.386;2022-09-09T13:15:50;3.10;;;2.27;;
2624;SDS011;1322;53.256;10.386;2022-09-09T13:18:21;2.87;;;2.23;;
2624;SDS011;1322;53.256;10.386;2022-09-09T13:20:49;4.43;;;2.70;;
2624;SDS011;1322;53.256;10.386;2022-09-09T13:23:16;4.37;;;2.73;;
2624;SDS011;1322;53.256;10.386;2022-09-09T13:25:56;4.70;;;2.80;;
2624;SDS011;1322;53.256;10.386;2022-09-09T13:28:25;10.70;;;5.27;;
2624;SDS011;1322;53.256;10.386;2022-09-09T13:30:59;4.50;;;3.20;;
2624;SDS011;1322;53.256;10.386;2022-09-09T13:33:33;4.03;;;3.03;;
2624;SDS011;1322;53.256;10.386;2022-09-09T13:36:04;5.47;;;2.70;;
2624;SDS011;1322;53.256;10.386;2022-09-09T13:38:31;4.53;;;2.53;;
2624;SDS011;1322;53.256;10.386;2022-09-09T13:41:01;4.23;;;2.50;;
2624;SDS011;1322;53.256;10.386;2022-09-09T13:43:29;3.50;;;2.27;;
2624;SDS011;1322;53.256;10.386;2022-09-09T13:45:59;4.17;;;2.93;;
2624;SDS011;1322;53.256;10.386;2022-09-09T13:48:27;8.83;;;2.70;;
2624;SDS011;1322;53.256;10.386;2022-09-09T13:50:55;6.80;;;3.30;;
2624;SDS011;1322;53.256;10.386;2022-09-09T13:53:22;3.60;;;2.67;;
2624;SDS011;1322;53.256;10.386;2022-09-09T13:55:48;3.77;;;3.23;;
2624;SDS011;1322;53.256;10.386;2022-09-09T13:58:16;3.93;;;3.47;;
2624;SDS011;1322;53.256;10.386;2022-09-09T14:00:44;3.93;;;3.53;;
2624;SDS011;1322;53.256;10.386;2022-09-09T14:03:10;4.80;;;3.20;;
2624;SDS011;1322;53.256;10.386;2022-09-09T14:05:35;5.30;;;3.63;;
2624;SDS011;1322;53.256;10.386;2022-09-09T14:08:03;2.90;;;2.20;;
2624;SDS011;1322;53.256;10.386;2022-09-09T14:10:30;5.30;;;1.87;;
2624;SDS011;1322;53.256;10.386;2022-09-09T14:12:56;2.70;;;1.83;;
2624;SDS011;1322;53.256;10.386;2022-09-09T14:15:21;20.27;;;16.17;;
2624;SDS011;1322;53.256;10.386;2022-09-09T14:17:47;2.53;;;1.93;;
2624;SDS011;1322;53.256;10.386;2022-09-09T14:20:13;3.00;;;1.40;;
2624;SDS011;1322;53.256;10.386;2022-09-09T14:22:40;5.30;;;1.50;;
2624;SDS011;1322;53.256;10.386;2022-09-09T14:25:06;2.17;;;1.33;;
2624;SDS011;1322;53.256;10.386;2022-09-09T14:27:32;2.10;;;1.40;;
2624;SDS011;1322;53.256;10.386;2022-09-09T14:29:58;4.80;;;1.60;;
2624;SDS011;1322;53.256;10.386;2022-09-09T14:32:25;2.77;;;1.67;;
2624;SDS011;1322;53.256;10.386;2022-09-09T14:34:52;2.27;;;1.57;;
2624;SDS011;1322;53.256;10.386;2022-09-09T14:37:17;3.73;;;1.50;;
2624;SDS011;1322;53.256;10.386;2022-09-09T14:39:43;3.20;;;1.30;;
2624;SDS011;1322;53.256;10.386;2022-09-09T14:42:16;5.90;;;1.70;;
2624;SDS011;1322;53.256;10.386;2022-09-09T14:44:41;5.00;;;2.03;;
2624;SDS011;1322;53.256;10.386;2022-09-09T14:47:07;4.00;;;1.73;;
2624;SDS011;1322;53.256;10.386;2022-09-09T14:49:34;3.50;;;2.07;;
2624;SDS011;1322;53.256;10.386;2022-09-09T14:52:00;2.47;;;1.60;;
2624;SDS011;1322;53.256;10.386;2022-09-09T14:54:26;4.17;;;1.70;;
2624;SDS011;1322;53.256;10.386;2022-09-09T14:56:53;4.90;;;2.20;;
2624;SDS011;1322;53.256;10.386;2022-09-09T14:59:19;2.50;;;1.90;;
2624;SDS011;1322;53.256;10.386;2022-09-09T15:01:44;3.03;;;1.70;;
2624;SDS011;1322;53.256;10.386;2022-09-09T15:04:10;2.77;;;2.00;;
2624;SDS011;1322;53.256;10.386;2022-09-09T15:06:37;5.00;;;1.63;;
2624;SDS011;1322;53.256;10.386;2022-09-09T15:09:04;3.30;;;1.77;;
2624;SDS011;1322;53.256;10.386;2022-09-09T15:11:31;4.57;;;1.77;;
2624;SDS011;1322;53.256;10.386;2022-09-09T15:14:02;3.93;;;2.00;;
2624;SDS011;1322;53.256;10.386;2022-09-09T15:16:29;3.50;;;1.87;;
2624;SDS011;1322;53.256;10.386;2022-09-09T15:18:55;4.13;;;1.60;;
2624;SDS011;1322;53.256;10.386;2022-09-09T15:21:23;3.00;;;1.57;;
2624;SDS011;1322;53.256;10.386;2022-09-09T15:23:50;4.40;;;1.80;;
2624;SDS011;1322;53.256;10.386;2022-09-09T15:26:17;2.60;;;2.00;;
2624;SDS011;1322;53.256;10.386;2022-09-09T15:28:43;2.73;;;1.80;;
2624;SDS011;1322;53.256;10.386;2022-09-09T15:31:11;4.87;;;2.00;;
2624;SDS011;1322;53.256;10.386;2022-09-09T15:38:41;5.47;;;3.03;;
2624;SDS011;1322;53.256;10.386;2022-09-09T15:41:09;3.40;;;2.10;;
2624;SDS011;1322;53.256;10.386;2022-09-09T15:43:35;4.27;;;2.47;;
2624;SDS011;1322;53.256;10.386;2022-09-09T15:46:05;2.93;;;1.80;;
2624;SDS011;1322;53.256;10.386;2022-09-09T15:48:42;2.63;;;2.00;;
2624;SDS011;1322;53.256;10.386;2022-09-09T15:51:11;5.03;;;2.67;;
2624;SDS011;1322;53.256;10.386;2022-09-09T15:53:38;5.40;;;3.13;;
2624;SDS011;1322;53.256;10.386;2022-09-09T15:56:04;2.87;;;2.60;;
2624;SDS011;1322;53.256;10.386;2022-09-09T15:58:31;2.97;;;2.73;;
2624;SDS011;1322;53.256;10.386;2022-09-09T16:01:07;5.23;;;3.30;;
2624;SDS011;1322;53.256;10.386;2022-09-09T16:03:34;3.77;;;2.60;;
2624;SDS011;1322;53.256;10.386;2022-09-09T16:06:01;4.10;;;2.70;;
2624;SDS011;1322;53.256;10.386;2022-09-09T16:08:34;4.10;;;2.30;;
2624;SDS011;1322;53.256;10.386;2022-09-09T16:11:04;6.03;;;2.57;;
2624;SDS011;1322;53.256;10.386;2022-09-09T16:13:35;3.53;;;3.23;;
2624;SDS011;1322;53.256;10.386;2022-09-09T16:16:01;3.87;;;2.80;;
2624;SDS011;1322;53.256;10.386;2022-09-09T16:18:36;3.97;;;3.10;;
2624;SDS011;1322;53.256;10.386;2022-09-09T16:21:07;4.23;;;2.50;;
2624;SDS011;1322;53.256;10.386;2022-09-09T16:23:36;3.50;;;2.97;;
2624;SDS011;1322;53.256;10.386;2022-09-09T16:26:02;5.53;;;3.73;;
2624;SDS011;1322;53.256;10.386;2022-09-09T16:28:28;5.53;;;4.07;;
2624;SDS011;1322;53.256;10.386;2022-09-09T16:30:53;7.60;;;4.17;;
2624;SDS011;1322;53.256;10.386;2022-09-09T16:33:19;7.13;;;3.53;;
2624;SDS011;1322;53.256;10.386;2022-09-09T16:35:45;6.20;;;3.30;;
2624;SDS011;1322;53.256;10.386;2022-09-09T16:38:10;5.40;;;3.37;;
2624;SDS011;1322;53.256;10.386;2022-09-09T16:40:37;3.53;;;2.63;;
2624;SDS011;1322;53.256;10.386;2022-09-09T16:43:03;4.20;;;3.37;;
2624;SDS011;1322;53.256;10.386;2022-09-09T16:45:30;6.13;;;2.87;;
2624;SDS011;1322;53.256;10.386;2022-09-09T16:47:57;4.57;;;2.77;;
2624;SDS011;1322;53.256;10.386;2022-09-09T16:50:23;6.23;;;3.17;;
2624;SDS011;1322;53.256;10.386;2022-09-09T16:52:49;7.63;;;3.03;;
2624;SDS011;1322;53.256;10.386;2022-09-09T16:55:16;4.07;;;2.80;;
2624;SDS011;1322;53.256;10.386;2022-09-09T16:57:42;6.30;;;3.37;;
2624;SDS011;1322;53.256;10.386;2022-09-09T17:00:07;3.57;;;3.20;;
2624;SDS011;1322;53.256;10.386;2022-09-09T17:02:34;5.83;;;3.00;;
2624;SDS011;1322;53.256;10.386;2022-09-09T17:04:59;8.30;;;3.03;;
2624;SDS011;1322;53.256;10.386;2022-09-09T17:07:25;4.50;;;2.83;;
2624;SDS011;1322;53.256;10.386;2022-09-09T17:09:50;4.43;;;3.27;;
2624;SDS011;1322;53.256;10.386;2022-09-09T17:12:19;5.40;;;3.30;;
2624;SDS011;1322;53.256;10.386;2022-09-09T17:14:45;4.10;;;3.00;;
2624;SDS011;1322;53.256;10.386;2022-09-09T17:17:10;4.80;;;3.20;;
2624;SDS011;1322;53.256;10.386;2022-09-09T17:19:36;7.03;;;3.93;;
2624;SDS011;1322;53.256;10.386;2022-09-09T17:22:02;5.60;;;4.37;;
2624;SDS011;1322;53.256;10.386;2022-09-09T17:24:27;5.10;;;4.17;;
2624;SDS011;1322;53.256;10.386;2022-09-09T17:26:54;7.47;;;4.03;;
2624;SDS011;1322;53.256;10.386;2022-09-09T17:29:20;5.17;;;4.43;;
2624;SDS011;1322;53.256;10.386;2022-09-09T17:31:46;7.00;;;3.83;;
2624;SDS011;1322;53.256;10.386;2022-09-09T17:34:12;5.50;;;3.87;;
2624;SDS011;1322;53.256;10.386;2022-09-09T17:36:38;4.07;;;2.90;;